createdAt,value
2022-10-11T00:01:59.471Z,0.80
2022-10-11T00:05:02.038Z,1.05
2022-10-11T00:08:07.477Z,0.88
2022-10-11T00:11:11.106Z,1.23
2022-10-11T00:14:13.654Z,1.10
2022-10-11T00:17:16.225Z,1.10
2022-10-11T00:20:24.336Z,0.98
2022-10-11T00:23:30.733Z,1.10
2022-10-11T00:26:33.367Z,1.10
2022-10-11T00:29:38.837Z,1.00
2022-10-11T00:32:48.783Z,0.80
2022-10-11T00:35:51.560Z,1.00
2022-10-11T00:38:53.982Z,1.00
2022-10-11T00:41:57.141Z,1.13
2022-10-11T00:45:27.034Z,0.68
2022-10-11T00:48:57.702Z,0.93
2022-10-11T00:52:20.961Z,0.93
2022-10-11T00:55:26.409Z,0.90
2022-10-11T00:58:29.648Z,0.95
2022-10-11T01:01:32.617Z,1.08
2022-10-11T01:04:35.881Z,1.02
2022-10-11T01:07:39.625Z,1.10
2022-10-11T01:10:42.537Z,1.13
2022-10-11T01:14:02.334Z,0.95
2022-10-11T01:17:29.711Z,0.90
2022-10-11T01:20:46.478Z,0.90
2022-10-11T01:24:13.105Z,0.50
2022-10-11T01:27:34.474Z,0.50
2022-10-11T01:30:37.982Z,1.13
2022-10-11T01:34:00.791Z,0.80
2022-10-11T01:37:26.078Z,0.98
2022-10-11T01:40:35.911Z,0.90
2022-10-11T01:43:39.500Z,1.08
2022-10-11T01:46:45.162Z,1.00
2022-10-11T01:49:54.876Z,1.20
2022-10-11T01:52:59.598Z,0.82
2022-10-11T01:56:06.623Z,1.25
2022-10-11T01:59:42.895Z,0.80
2022-10-11T02:03:24.028Z,0.85
2022-10-11T02:06:59.068Z,0.70
2022-10-11T02:10:08.011Z,0.73
2022-10-11T02:13:17.330Z,0.73
2022-10-11T02:16:27.992Z,1.00
2022-10-11T02:19:35.711Z,1.17
2022-10-11T02:22:40.145Z,1.75
2022-10-11T02:25:43.805Z,1.23
2022-10-11T02:28:47.425Z,0.88
2022-10-11T02:31:53.721Z,1.55
2022-10-11T02:35:03.907Z,0.93
2022-10-11T02:38:22.034Z,0.80
2022-10-11T02:41:34.241Z,1.02
2022-10-11T02:44:46.386Z,0.82
2022-10-11T02:47:48.978Z,1.00
2022-10-11T02:50:51.919Z,0.82
2022-10-11T02:53:54.980Z,1.00
2022-10-11T02:56:58.559Z,1.00
2022-10-11T03:00:01.078Z,1.42
2022-10-11T03:03:06.597Z,0.98
2022-10-11T03:06:14.457Z,0.90
2022-10-11T03:09:19.873Z,1.23
2022-10-11T03:12:22.553Z,1.02
2022-10-11T03:15:25.051Z,0.90
2022-10-11T03:18:30.275Z,1.00
2022-10-11T03:21:32.871Z,0.80
2022-10-11T03:24:39.981Z,1.58
2022-10-11T03:30:50.524Z,0.60
2022-10-11T03:33:55.607Z,0.68
2022-10-11T03:36:58.274Z,0.60
2022-10-11T03:40:00.845Z,1.20
2022-10-11T03:43:06.045Z,1.15
2022-10-11T03:46:09.134Z,1.10
2022-10-11T03:49:14.501Z,0.77
2022-10-11T03:52:20.349Z,0.90
2022-10-11T03:55:28.697Z,1.13
2022-10-11T03:58:33.817Z,0.98
2022-10-11T04:01:38.884Z,0.88
2022-10-11T04:04:44.494Z,0.60
2022-10-11T04:07:46.939Z,0.77
2022-10-11T04:10:49.837Z,0.90
2022-10-11T04:13:52.541Z,1.25
2022-10-11T04:16:58.394Z,0.70
2022-10-11T04:20:03.511Z,1.02
2022-10-11T04:23:06.019Z,1.00
2022-10-11T04:26:14.204Z,1.30
2022-10-11T04:29:16.904Z,0.73
2022-10-11T04:32:22.196Z,1.38
2022-10-11T04:35:28.047Z,1.38
2022-10-11T04:38:30.566Z,1.00
2022-10-11T04:41:38.300Z,1.45
2022-10-11T04:44:40.730Z,0.80
2022-10-11T04:47:43.461Z,1.23
2022-10-11T04:50:46.279Z,0.77
2022-10-11T04:53:55.017Z,0.80
2022-10-11T04:56:58.006Z,0.80
2022-10-11T05:00:00.611Z,1.15
2022-10-11T05:03:03.318Z,2.65
2022-10-11T05:06:06.411Z,2.42
2022-10-11T05:09:09.244Z,2.53
2022-10-11T05:12:11.866Z,2.00
2022-10-11T05:15:17.921Z,1.90
2022-10-11T05:18:20.449Z,1.90
2022-10-11T05:21:25.855Z,2.45
2022-10-11T05:24:28.505Z,2.28
2022-10-11T05:27:34.226Z,2.22
2022-10-11T05:30:36.753Z,1.95
2022-10-11T05:33:43.004Z,1.48
2022-10-11T05:36:45.948Z,2.00
2022-10-11T05:39:51.544Z,1.70
2022-10-11T05:42:56.966Z,3.03
2022-10-11T05:45:59.582Z,2.40
2022-10-11T05:49:04.751Z,2.42
2022-10-11T05:52:09.496Z,2.45
2022-10-11T05:55:12.048Z,2.67
2022-10-11T05:58:18.108Z,3.08
2022-10-11T06:01:23.484Z,2.73
2022-10-11T06:04:26.019Z,2.67
2022-10-11T06:07:28.674Z,3.03
2022-10-11T06:10:34.022Z,2.95
2022-10-11T06:13:36.657Z,2.72
2022-10-11T06:16:41.365Z,2.83
2022-10-11T06:19:44.061Z,3.83
2022-10-11T06:22:46.553Z,3.25
2022-10-11T06:26:09.791Z,3.03
2022-10-11T06:29:12.783Z,3.17
2022-10-11T06:32:18.102Z,2.65
2022-10-11T06:35:20.600Z,3.28
2022-10-11T06:38:23.370Z,3.83
2022-10-11T06:41:27.638Z,4.20
2022-10-11T06:44:30.387Z,3.47
2022-10-11T06:47:32.899Z,3.38
2022-10-11T06:50:58.660Z,3.38
2022-10-11T06:54:02.836Z,2.88
2022-10-11T06:57:06.266Z,2.80
2022-10-11T07:00:12.597Z,2.78
2022-10-11T07:03:15.537Z,3.30
2022-10-11T07:06:20.634Z,3.95
2022-10-11T07:09:23.284Z,3.17
2022-10-11T07:12:25.835Z,3.60
2022-10-11T07:15:35.117Z,4.20
2022-10-11T07:18:38.220Z,3.92
2022-10-11T07:21:40.833Z,4.25
2022-10-11T07:24:43.792Z,3.78
2022-10-11T07:27:46.622Z,3.10
2022-10-11T07:30:49.992Z,3.22
2022-10-11T07:33:54.259Z,3.80
2022-10-11T07:36:56.735Z,3.28
2022-10-11T07:40:02.196Z,2.85
2022-10-11T07:43:07.516Z,3.28
2022-10-11T07:46:11.296Z,2.60
2022-10-11T07:49:14.001Z,4.22
2022-10-11T07:52:17.068Z,3.60
2022-10-11T07:55:19.727Z,4.00
2022-10-11T07:58:22.990Z,2.92
2022-10-11T08:01:27.616Z,3.85
2022-10-11T08:04:30.489Z,4.07
2022-10-11T08:07:33.602Z,3.50
2022-10-11T08:10:40.533Z,3.65
2022-10-11T08:13:43.352Z,3.47
2022-10-11T08:16:46.147Z,4.43
2022-10-11T08:19:49.241Z,5.07
2022-10-11T08:22:52.062Z,5.30
2022-10-11T08:26:00.179Z,5.25
2022-10-11T08:29:05.345Z,4.03
2022-10-11T08:32:12.526Z,4.80
2022-10-11T08:35:15.505Z,4.70
2022-10-11T08:38:18.659Z,3.30
2022-10-11T08:41:39.541Z,3.75
2022-10-11T08:45:11.397Z,3.40
2022-10-11T08:48:21.918Z,3.03
2022-10-11T08:52:00.937Z,3.33
2022-10-11T08:55:08.685Z,2.72
2022-10-11T08:58:18.336Z,3.05
2022-10-11T09:01:31.427Z,3.00
2022-10-11T09:04:36.222Z,3.67
2022-10-11T09:07:51.051Z,3.53
2022-10-11T09:11:07.710Z,2.85
2022-10-11T09:14:47.976Z,3.13
2022-10-11T09:18:13.169Z,1.95
2022-10-11T09:21:32.561Z,1.92
2022-10-11T09:24:49.201Z,1.90
2022-10-11T09:28:21.372Z,1.70
2022-10-11T09:31:24.867Z,1.63
2022-10-11T09:34:34.186Z,2.53
2022-10-11T09:37:54.132Z,2.00
2022-10-11T09:41:10.689Z,2.17
2022-10-11T09:44:23.463Z,2.35
2022-10-11T09:47:29.687Z,2.95
2022-10-11T09:50:35.005Z,3.20
2022-10-11T09:53:59.262Z,3.63
2022-10-11T09:57:03.328Z,2.65
2022-10-11T10:00:27.847Z,3.30
2022-10-11T10:03:35.933Z,3.67
2022-10-11T10:06:39.893Z,3.58
2022-10-11T10:09:42.822Z,4.50
2022-10-11T10:12:46.040Z,3.15
2022-10-11T10:15:51.607Z,3.35
2022-10-11T10:19:01.796Z,4.47
2022-10-11T10:22:04.540Z,3.67
2022-10-11T10:25:09.622Z,3.47
2022-10-11T10:28:22.559Z,3.13
2022-10-11T10:31:30.840Z,2.92
2022-10-11T10:34:40.366Z,3.15
2022-10-11T10:37:53.315Z,3.15
2022-10-11T10:41:08.115Z,2.80
2022-10-11T10:44:11.306Z,2.58
2022-10-11T10:47:27.336Z,2.30
2022-10-11T10:50:49.147Z,2.75
2022-10-11T10:54:01.190Z,2.92
2022-10-11T10:57:10.779Z,3.80
2022-10-11T11:00:19.985Z,3.28
2022-10-11T11:03:27.693Z,2.92
2022-10-11T11:06:59.710Z,3.05
2022-10-11T11:10:08.342Z,2.88
2022-10-11T11:13:48.786Z,3.15
2022-10-11T11:17:11.549Z,3.50
2022-10-11T11:20:38.492Z,3.88
2022-10-11T11:23:55.963Z,3.80
2022-10-11T11:27:28.386Z,3.65
2022-10-11T11:30:42.393Z,3.70
2022-10-11T11:33:51.729Z,3.58
2022-10-11T11:37:02.635Z,3.42
2022-10-11T11:40:05.323Z,3.40
2022-10-11T11:43:47.382Z,3.20
2022-10-11T11:47:22.169Z,3.40
2022-10-11T11:50:31.540Z,3.70
2022-10-11T11:53:49.314Z,5.10
2022-10-11T11:57:16.400Z,3.60
2022-10-11T12:00:25.298Z,3.72
2022-10-11T12:03:44.269Z,3.72
2022-10-11T12:07:15.998Z,3.50
2022-10-11T12:10:33.961Z,3.95
2022-10-11T12:13:45.383Z,4.07
2022-10-11T12:17:11.553Z,4.68
2022-10-11T12:20:23.226Z,4.25
2022-10-11T12:23:29.989Z,4.28
2022-10-11T12:26:37.155Z,3.40
2022-10-11T12:29:44.906Z,3.47
2022-10-11T12:32:50.623Z,4.20
2022-10-11T12:35:55.937Z,3.75
2022-10-11T12:39:20.309Z,4.95
2022-10-11T12:42:28.820Z,4.07
2022-10-11T12:45:35.909Z,4.65
2022-10-11T12:48:57.197Z,3.85
2022-10-11T12:52:18.720Z,3.83
2022-10-11T12:55:39.963Z,4.18
2022-10-11T12:58:47.975Z,4.32
2022-10-11T13:02:00.644Z,4.47
2022-10-11T13:05:35.757Z,4.65
2022-10-11T13:08:42.239Z,4.80
2022-10-11T13:11:53.333Z,4.60
2022-10-11T13:15:07.552Z,4.38
2022-10-11T13:18:18.300Z,4.60
2022-10-11T13:21:41.530Z,4.35
2022-10-11T13:24:45.326Z,5.82
2022-10-11T13:27:49.925Z,5.15
2022-10-11T13:30:57.973Z,5.35
2022-10-11T13:34:00.687Z,5.82
2022-10-11T13:37:03.922Z,5.00
2022-10-11T13:40:07.157Z,4.90
2022-10-11T13:43:09.771Z,4.90
2022-10-11T13:46:20.348Z,4.93
2022-10-11T13:49:40.518Z,4.80
2022-10-11T13:53:03.326Z,4.45
2022-10-11T13:56:12.865Z,4.60
2022-10-11T13:59:24.719Z,4.85
2022-10-11T14:02:28.850Z,4.32
2022-10-11T14:05:43.148Z,3.97
2022-10-11T14:08:51.146Z,4.78
2022-10-11T14:11:54.533Z,4.72
2022-10-11T14:14:58.362Z,3.53
2022-10-11T14:18:02.638Z,5.22
2022-10-11T14:21:20.894Z,4.63
2022-10-11T14:24:25.967Z,3.92
2022-10-11T14:27:28.867Z,5.43
2022-10-11T14:30:31.928Z,3.60
2022-10-11T14:33:35.974Z,3.95
2022-10-11T14:36:38.834Z,3.85
2022-10-11T14:39:42.403Z,4.20
2022-10-11T14:42:46.379Z,4.07
2022-10-11T14:45:49.777Z,3.60
2022-10-11T14:48:56.053Z,3.05
2022-10-11T14:51:59.876Z,3.88
2022-10-11T14:55:02.758Z,4.43
2022-10-11T14:58:07.128Z,3.83
2022-10-11T15:01:15.146Z,3.92
2022-10-11T15:04:25.913Z,4.68
2022-10-11T15:07:28.499Z,4.20
2022-10-11T15:10:37.025Z,4.20
2022-10-11T15:13:40.033Z,3.40
2022-10-11T15:16:43.122Z,4.32
2022-10-11T15:19:46.139Z,3.80
2022-10-11T15:22:49.131Z,4.30
2022-10-11T15:26:05.200Z,4.90
2022-10-11T15:29:10.958Z,3.60
2022-10-11T15:32:13.768Z,3.83
2022-10-11T15:35:17.894Z,3.42
2022-10-11T15:38:23.028Z,3.85
2022-10-11T15:41:25.813Z,4.03
2022-10-11T15:44:28.601Z,3.30
2022-10-11T15:47:31.577Z,4.05
2022-10-11T15:50:40.101Z,3.25
2022-10-11T15:53:43.240Z,3.45
2022-10-11T15:56:46.073Z,3.90
2022-10-11T15:59:48.981Z,3.88
2022-10-11T16:02:53.008Z,3.90
2022-10-11T16:05:58.938Z,4.07
2022-10-11T16:09:06.031Z,4.25
2022-10-11T16:12:08.952Z,4.10
2022-10-11T16:15:12.160Z,3.58
2022-10-11T16:18:17.553Z,4.07
2022-10-11T16:21:21.387Z,4.95
2022-10-11T16:24:23.837Z,4.95
2022-10-11T16:27:27.178Z,4.20
2022-10-11T16:30:30.756Z,4.05
2022-10-11T16:33:33.306Z,4.15
2022-10-11T16:36:37.043Z,4.00
2022-10-11T16:39:39.973Z,4.25
2022-10-11T16:42:43.115Z,4.35
2022-10-11T16:45:45.735Z,4.60
2022-10-11T16:48:49.906Z,3.42
2022-10-11T16:51:54.494Z,3.92
2022-10-11T16:54:57.846Z,4.22
2022-10-11T16:58:00.443Z,4.30
2022-10-11T17:01:04.386Z,4.60
2022-10-11T17:04:07.533Z,4.65
2022-10-11T17:07:13.421Z,4.45
2022-10-11T17:10:16.062Z,3.58
2022-10-11T17:13:19.873Z,4.60
2022-10-11T17:16:23.317Z,5.18
2022-10-11T17:19:26.114Z,4.05
2022-10-11T17:22:29.031Z,3.92
2022-10-11T17:25:31.774Z,5.25
2022-10-11T17:28:36.115Z,4.43
2022-10-11T17:31:39.203Z,4.68
2022-10-11T17:34:41.906Z,4.20
2022-10-11T17:37:45.006Z,5.38
2022-10-11T17:40:48.849Z,4.57
2022-10-11T17:43:54.699Z,4.78
2022-10-11T17:46:58.112Z,4.43
2022-10-11T17:50:00.795Z,4.95
2022-10-11T17:53:07.752Z,3.85
2022-10-11T17:56:13.787Z,3.92
2022-10-11T17:59:29.539Z,4.25
2022-10-11T18:02:35.346Z,3.33
2022-10-11T18:05:41.908Z,4.43
2022-10-11T18:08:44.849Z,3.90
2022-10-11T18:11:48.829Z,4.38
2022-10-11T18:14:54.489Z,4.32
2022-10-11T18:18:01.913Z,4.05
2022-10-11T18:21:06.329Z,4.38
2022-10-11T18:24:16.687Z,4.28
2022-10-11T18:27:20.718Z,5.15
2022-10-11T18:30:38.164Z,5.30
2022-10-11T18:33:44.899Z,4.57
2022-10-11T18:36:51.344Z,5.10
2022-10-11T18:39:54.214Z,4.93
2022-10-11T18:42:58.792Z,4.88
2022-10-11T18:46:16.275Z,5.50
2022-10-11T18:52:22.481Z,4.55
2022-10-11T18:55:25.627Z,4.82
2022-10-11T18:58:34.167Z,5.20
2022-10-11T19:01:42.899Z,5.25
2022-10-11T19:04:46.257Z,5.03
2022-10-11T19:07:49.483Z,4.95
2022-10-11T19:10:52.169Z,5.65
2022-10-11T19:14:03.207Z,6.03
2022-10-11T19:17:07.351Z,6.15
2022-10-11T19:20:10.438Z,5.30
2022-10-11T19:23:13.304Z,4.88
2022-10-11T19:26:17.415Z,5.57
2022-10-11T19:29:23.225Z,5.13
2022-10-11T19:32:29.537Z,5.68
2022-10-11T19:35:32.565Z,5.55
2022-10-11T19:38:36.603Z,5.47
2022-10-11T19:41:39.866Z,5.18
2022-10-11T19:44:43.238Z,5.25
2022-10-11T19:47:46.653Z,5.15
2022-10-11T19:50:49.318Z,4.38
2022-10-11T19:53:57.967Z,4.20
2022-10-11T20:00:03.816Z,5.70
2022-10-11T20:03:10.108Z,4.97
2022-10-11T20:06:16.936Z,4.13
2022-10-11T20:09:35.015Z,4.87
2022-10-11T20:12:41.264Z,4.95
2022-10-11T20:15:47.987Z,5.15
2022-10-11T20:18:51.553Z,5.75
2022-10-11T20:21:54.900Z,5.57
2022-10-11T20:24:57.770Z,4.80
2022-10-11T20:28:00.676Z,5.88
2022-10-11T20:31:06.429Z,5.85
2022-10-11T20:34:10.958Z,4.88
2022-10-11T20:37:16.441Z,5.45
2022-10-11T20:40:19.462Z,5.55
2022-10-11T20:43:23.970Z,6.28
2022-10-11T20:46:29.075Z,5.30
2022-10-11T20:49:31.669Z,5.88
2022-10-11T20:52:34.912Z,5.20
2022-10-11T20:55:37.677Z,6.45
2022-10-11T20:58:41.125Z,5.22
2022-10-11T21:01:44.010Z,6.40
2022-10-11T21:04:46.927Z,5.93
2022-10-11T21:07:50.665Z,5.30
2022-10-11T21:10:54.966Z,5.78
2022-10-11T21:13:59.553Z,6.20
2022-10-11T21:17:02.389Z,5.72
2022-10-11T21:20:06.891Z,5.78
2022-10-11T21:23:10.531Z,5.88
2022-10-11T21:26:14.445Z,5.00
2022-10-11T21:29:17.167Z,5.32
2022-10-11T21:32:20.064Z,5.55
2022-10-11T21:35:22.810Z,5.47
2022-10-11T21:38:28.662Z,6.03
2022-10-11T21:41:31.474Z,5.82
2022-10-11T21:44:38.075Z,5.80
2022-10-11T21:47:40.967Z,5.55
2022-10-11T21:50:44.174Z,4.72
2022-10-11T21:53:46.997Z,5.68
2022-10-11T21:56:53.198Z,5.70
2022-10-11T21:59:55.582Z,5.30
2022-10-11T22:02:58.526Z,4.47
2022-10-11T22:06:04.762Z,6.10
2022-10-11T22:09:07.947Z,5.47
2022-10-11T22:12:10.577Z,4.85
2022-10-11T22:15:13.539Z,5.88
2022-10-11T22:18:16.463Z,5.10
2022-10-11T22:21:21.849Z,5.57
2022-10-11T22:24:24.379Z,6.40
2022-10-11T22:27:27.306Z,6.00
2022-10-11T22:30:30.524Z,6.10
2022-10-11T22:33:37.460Z,6.00
2022-10-11T22:36:40.053Z,5.53
2022-10-11T22:39:44.269Z,5.28
2022-10-11T22:42:50.327Z,5.75
2022-10-11T22:45:53.121Z,5.20
2022-10-11T22:48:55.536Z,5.70
2022-10-11T22:51:58.293Z,5.80
2022-10-11T22:55:00.901Z,5.57
2022-10-11T22:58:03.490Z,5.63
2022-10-11T23:01:13.495Z,6.18
2022-10-11T23:04:19.647Z,4.82
2022-10-11T23:07:21.895Z,5.70
2022-10-11T23:10:25.337Z,5.13
2022-10-11T23:13:27.825Z,6.38
2022-10-11T23:16:30.552Z,5.57
2022-10-11T23:19:33.642Z,4.90
2022-10-11T23:22:36.071Z,5.25
2022-10-11T23:25:39.510Z,5.20
2022-10-11T23:28:43.073Z,5.57
2022-10-11T23:31:47.522Z,5.20
2022-10-11T23:34:50.035Z,5.65
2022-10-11T23:37:55.510Z,5.97
2022-10-11T23:40:58.139Z,5.35
2022-10-11T23:44:01.070Z,5.88
2022-10-11T23:47:03.745Z,5.80
2022-10-11T23:50:07.612Z,5.10
2022-10-11T23:53:11.166Z,5.63
2022-10-11T23:56:13.515Z,6.20
2022-10-11T23:59:16.758Z,4.93
